sensor_id;sensor_type;location;lat;lon;timestamp;pressure;altitude;pressure_sealevel;temperature;humidity
50226;BME280;36113;50.742;6.432;2022-09-17T00:00:47;146931.78;;;7.91;100.00
50226;BME280;36113;50.742;6.432;2022-09-17T00:03:13;146978.03;;;8.10;100.00
50226;BME280;36113;50.742;6.432;2022-09-17T00:05:38;146943.03;;;7.95;100.00
50226;BME280;36113;50.742;6.432;2022-09-17T00:08:04;146974.31;;;8.08;100.00
50226;BME280;36113;50.742;6.432;2022-09-17T00:10:30;146979.31;;;8.10;100.00
50226;BME280;36113;50.742;6.432;2022-09-17T00:12:56;146969.28;;;8.06;100.00
50226;BME280;36113;50.742;6.432;2022-09-17T00:15:21;146939.28;;;7.94;100.00
50226;BME280;36113;50.742;6.432;2022-09-17T00:17:47;146924.31;;;7.87;100.00
50226;BME280;36113;50.742;6.432;2022-09-17T00:20:12;146983.06;;;8.12;100.00
50226;BME280;36113;50.742;6.432;2022-09-17T00:22:38;147001.81;;;8.19;100.00
50226;BME280;36113;50.742;6.432;2022-09-17T00:25:04;147001.81;;;8.19;100.00
50226;BME280;36113;50.742;6.432;2022-09-17T00:27:30;146991.81;;;8.15;100.00
50226;BME280;36113;50.742;6.432;2022-09-17T00:29:55;146949.31;;;7.98;100.00
50226;BME280;36113;50.742;6.432;2022-09-17T00:32:21;146993.06;;;8.16;100.00
50226;BME280;36113;50.742;6.432;2022-09-17T00:34:48;146995.56;;;8.17;100.00
50226;BME280;36113;50.742;6.432;2022-09-17T00:37:13;147009.31;;;8.22;100.00
50226;BME280;36113;50.742;6.432;2022-09-17T00:39:38;146936.81;;;7.93;100.00
50226;BME280;36113;50.742;6.432;2022-09-17T00:42:04;146986.81;;;8.13;100.00
50226;BME280;36113;50.742;6.432;2022-09-17T00:44:45;147043.06;;;8.36;100.00
50226;BME280;36113;50.742;6.432;2022-09-17T00:47:30;147031.81;;;8.32;100.00
50226;BME280;36113;50.742;6.432;2022-09-17T00:50:08;146998.06;;;8.18;100.00
50226;BME280;36113;50.742;6.432;2022-09-17T00:52:56;147035.56;;;8.33;100.00
50226;BME280;36113;50.742;6.432;2022-09-17T00:55:24;147034.31;;;8.33;100.00
50226;BME280;36113;50.742;6.432;2022-09-17T00:57:54;147033.09;;;8.32;100.00
50226;BME280;36113;50.742;6.432;2022-09-17T01:00:20;147040.56;;;8.35;100.00
50226;BME280;36113;50.742;6.432;2022-09-17T01:02:47;147049.31;;;8.39;100.00
50226;BME280;36113;50.742;6.432;2022-09-17T01:05:13;147051.81;;;8.40;100.00
50226;BME280;36113;50.742;6.432;2022-09-17T01:13:20;147068.13;;;8.47;100.00
50226;BME280;36113;50.742;6.432;2022-09-17T01:18:34;147016.81;;;8.25;100.00
50226;BME280;36113;50.742;6.432;2022-09-17T01:23:48;147060.63;;;8.43;100.00
50226;BME280;36113;50.742;6.432;2022-09-17T01:32:31;147054.34;;;8.41;100.00
50226;BME280;36113;50.742;6.432;2022-09-17T01:37:53;147055.56;;;8.41;100.00
50226;BME280;36113;50.742;6.432;2022-09-17T01:40:29;147034.31;;;8.33;100.00
50226;BME280;36113;50.742;6.432;2022-09-17T01:45:56;147011.84;;;8.23;100.00
50226;BME280;36113;50.742;6.432;2022-09-17T01:48:25;147055.56;;;8.41;100.00
50226;BME280;36113;50.742;6.432;2022-09-17T01:51:07;147049.31;;;8.39;100.00
50226;BME280;36113;50.742;6.432;2022-09-17T01:53:49;147039.31;;;8.35;100.00
50226;BME280;36113;50.742;6.432;2022-09-17T01:56:20;147050.59;;;8.39;100.00
50226;BME280;36113;50.742;6.432;2022-09-17T01:59:05;147013.06;;;8.24;100.00
50226;BME280;36113;50.742;6.432;2022-09-17T02:01:34;147051.81;;;8.40;100.00
50226;BME280;36113;50.742;6.432;2022-09-17T02:04:09;146975.56;;;8.08;100.00
50226;BME280;36113;50.742;6.432;2022-09-17T02:06:37;147061.84;;;8.44;100.00
50226;BME280;36113;50.742;6.432;2022-09-17T02:09:16;147058.16;;;8.42;100.00
50226;BME280;36113;50.742;6.432;2022-09-17T02:11:45;147026.81;;;8.30;100.00
50226;BME280;36113;50.742;6.432;2022-09-17T02:14:23;147064.38;;;8.45;100.00
50226;BME280;36113;50.742;6.432;2022-09-17T02:16:55;147051.81;;;8.40;100.00
50226;BME280;36113;50.742;6.432;2022-09-17T02:19:29;147025.56;;;8.29;100.00
50226;BME280;36113;50.742;6.432;2022-09-17T02:24:43;147066.91;;;8.46;100.00
50226;BME280;36113;50.742;6.432;2022-09-17T02:27:27;147083.16;;;8.53;100.00
50226;BME280;36113;50.742;6.432;2022-09-17T02:29:53;147083.16;;;8.53;100.00
50226;BME280;36113;50.742;6.432;2022-09-17T02:32:18;147075.66;;;8.50;100.00
50226;BME280;36113;50.742;6.432;2022-09-17T02:34:44;147089.38;;;8.55;100.00
50226;BME280;36113;50.742;6.432;2022-09-17T02:37:10;147094.38;;;8.57;100.00
50226;BME280;36113;50.742;6.432;2022-09-17T02:39:35;147099.38;;;8.59;100.00
50226;BME280;36113;50.742;6.432;2022-09-17T02:42:27;147113.16;;;8.65;100.00
50226;BME280;36113;50.742;6.432;2022-09-17T02:48:26;147116.94;;;8.67;100.00
50226;BME280;36113;50.742;6.432;2022-09-17T02:53:32;147118.16;;;8.67;100.00
50226;BME280;36113;50.742;6.432;2022-09-17T02:56:23;147135.66;;;8.74;100.00
50226;BME280;36113;50.742;6.432;2022-09-17T02:59:11;147120.69;;;8.68;100.00
50226;BME280;36113;50.742;6.432;2022-09-17T03:01:43;147103.13;;;8.61;100.00
50226;BME280;36113;50.742;6.432;2022-09-17T03:04:13;147124.38;;;8.70;100.00
50226;BME280;36113;50.742;6.432;2022-09-17T03:06:41;147121.91;;;8.69;100.00
50226;BME280;36113;50.742;6.432;2022-09-17T03:09:09;147131.91;;;8.73;100.00
50226;BME280;36113;50.742;6.432;2022-09-17T03:11:34;147141.94;;;8.77;100.00
50226;BME280;36113;50.742;6.432;2022-09-17T03:13:59;147114.41;;;8.66;100.00
50226;BME280;36113;50.742;6.432;2022-09-17T03:16:25;147138.19;;;8.75;100.00
50226;BME280;36113;50.742;6.432;2022-09-17T03:18:50;147138.19;;;8.75;100.00
50226;BME280;36113;50.742;6.432;2022-09-17T03:21:15;147138.19;;;8.75;100.00
50226;BME280;36113;50.742;6.432;2022-09-17T03:23:40;147151.94;;;8.81;100.00
50226;BME280;36113;50.742;6.432;2022-09-17T03:26:06;147066.91;;;8.46;100.00
50226;BME280;36113;50.742;6.432;2022-09-17T03:28:31;147106.91;;;8.62;100.00
50226;BME280;36113;50.742;6.432;2022-09-17T03:30:57;147096.91;;;8.58;100.00
50226;BME280;36113;50.742;6.432;2022-09-17T03:33:22;147135.66;;;8.74;100.00
50226;BME280;36113;50.742;6.432;2022-09-17T03:35:48;147133.19;;;8.73;100.00
50226;BME280;36113;50.742;6.432;2022-09-17T03:38:13;147128.16;;;8.71;100.00
50226;BME280;36113;50.742;6.432;2022-09-17T03:40:39;147115.66;;;8.66;100.00
50226;BME280;36113;50.742;6.432;2022-09-17T03:43:05;147105.66;;;8.62;100.00
50226;BME280;36113;50.742;6.432;2022-09-17T03:45:31;147131.91;;;8.73;100.00
50226;BME280;36113;50.742;6.432;2022-09-17T03:47:56;147076.88;;;8.50;100.00
50226;BME280;36113;50.742;6.432;2022-09-17T03:50:22;147081.88;;;8.52;100.00
50226;BME280;36113;50.742;6.432;2022-09-17T03:52:47;147079.41;;;8.51;100.00
50226;BME280;36113;50.742;6.432;2022-09-17T03:55:13;147101.91;;;8.60;100.00
50226;BME280;36113;50.742;6.432;2022-09-17T03:57:40;147115.66;;;8.66;100.00
50226;BME280;36113;50.742;6.432;2022-09-17T04:00:06;147124.38;;;8.70;100.00
50226;BME280;36113;50.742;6.432;2022-09-17T04:02:32;147125.69;;;8.70;100.00
50226;BME280;36113;50.742;6.432;2022-09-17T04:04:57;147149.41;;;8.80;100.00
50226;BME280;36113;50.742;6.432;2022-09-17T04:07:22;147156.94;;;8.83;100.00
50226;BME280;36113;50.742;6.432;2022-09-17T04:09:47;147103.13;;;8.61;100.00
50226;BME280;36113;50.742;6.432;2022-09-17T04:12:13;147085.63;;;8.54;100.00
50226;BME280;36113;50.742;6.432;2022-09-17T04:14:38;147125.69;;;8.70;100.00
50226;BME280;36113;50.742;6.432;2022-09-17T04:17:04;147106.91;;;8.62;100.00
50226;BME280;36113;50.742;6.432;2022-09-17T04:19:29;147146.94;;;8.79;100.00
50226;BME280;36113;50.742;6.432;2022-09-17T04:21:54;147158.16;;;8.83;100.00
50226;BME280;36113;50.742;6.432;2022-09-17T04:24:20;147149.41;;;8.80;100.00
50226;BME280;36113;50.742;6.432;2022-09-17T04:26:45;147158.16;;;8.83;100.00
50226;BME280;36113;50.742;6.432;2022-09-17T04:29:10;147154.44;;;8.82;100.00
50226;BME280;36113;50.742;6.432;2022-09-17T04:31:35;147126.91;;;8.71;100.00
50226;BME280;36113;50.742;6.432;2022-09-17T04:34:01;147135.66;;;8.74;100.00
50226;BME280;36113;50.742;6.432;2022-09-17T04:36:26;147109.41;;;8.63;100.00
50226;BME280;36113;50.742;6.432;2022-09-17T04:38:51;147143.19;;;8.77;100.00
50226;BME280;36113;50.742;6.432;2022-09-17T04:41:17;147125.69;;;8.70;100.00
50226;BME280;36113;50.742;6.432;2022-09-17T04:43:43;147118.16;;;8.67;100.00
50226;BME280;36113;50.742;6.432;2022-09-17T04:46:08;147099.38;;;8.59;100.00
50226;BME280;36113;50.742;6.432;2022-09-17T04:48:33;147126.91;;;8.71;100.00
50226;BME280;36113;50.742;6.432;2022-09-17T04:50:59;147101.91;;;8.60;100.00
50226;BME280;36113;50.742;6.432;2022-09-17T04:53:24;147136.91;;;8.75;100.00
50226;BME280;36113;50.742;6.432;2022-09-17T04:55:49;147134.44;;;8.74;100.00
50226;BME280;36113;50.742;6.432;2022-09-17T04:58:15;147089.38;;;8.55;100.00
50226;BME280;36113;50.742;6.432;2022-09-17T05:00:40;147079.41;;;8.51;100.00
50226;BME280;36113;50.742;6.432;2022-09-17T05:03:06;147103.13;;;8.61;100.00
50226;BME280;36113;50.742;6.432;2022-09-17T05:05:32;147074.38;;;8.49;100.00
50226;BME280;36113;50.742;6.432;2022-09-17T05:07:58;147111.88;;;8.64;100.00
50226;BME280;36113;50.742;6.432;2022-09-17T05:10:23;147139.44;;;8.76;100.00
50226;BME280;36113;50.742;6.432;2022-09-17T05:12:53;147120.69;;;8.68;100.00
50226;BME280;36113;50.742;6.432;2022-09-17T05:15:19;147134.44;;;8.74;100.00
50226;BME280;36113;50.742;6.432;2022-09-17T05:17:45;147108.19;;;8.63;100.00
50226;BME280;36113;50.742;6.432;2022-09-17T05:20:11;147158.16;;;8.83;100.00
50226;BME280;36113;50.742;6.432;2022-09-17T05:22:43;147144.41;;;8.78;100.00
50226;BME280;36113;50.742;6.432;2022-09-17T05:25:10;147140.66;;;8.76;100.00
50226;BME280;36113;50.742;6.432;2022-09-17T05:27:37;147105.66;;;8.62;100.00
50226;BME280;36113;50.742;6.432;2022-09-17T05:30:03;147153.16;;;8.81;100.00
50226;BME280;36113;50.742;6.432;2022-09-17T05:32:28;147163.22;;;8.86;100.00
50226;BME280;36113;50.742;6.432;2022-09-17T05:47:20;147239.50;;;9.17;100.00
50226;BME280;36113;50.742;6.432;2022-09-17T05:49:45;147232.00;;;9.14;100.00
50226;BME280;36113;50.742;6.432;2022-09-17T05:52:11;147224.47;;;9.11;100.00
50226;BME280;36113;50.742;6.432;2022-09-17T05:54:36;147228.22;;;9.12;100.00
50226;BME280;36113;50.742;6.432;2022-09-17T05:57:01;147237.00;;;9.16;100.00
50226;BME280;36113;50.742;6.432;2022-09-17T05:59:27;147203.22;;;9.02;100.00
50226;BME280;36113;50.742;6.432;2022-09-17T06:01:52;147249.50;;;9.21;100.00
50226;BME280;36113;50.742;6.432;2022-09-17T06:04:17;147215.72;;;9.07;100.00
50226;BME280;36113;50.742;6.432;2022-09-17T06:06:43;147272.06;;;9.30;100.00
50226;BME280;36113;50.742;6.432;2022-09-17T06:09:08;147217.00;;;9.08;100.00
50226;BME280;36113;50.742;6.432;2022-09-17T06:11:35;147253.25;;;9.23;100.00
50226;BME280;36113;50.742;6.432;2022-09-17T06:14:00;147233.22;;;9.14;100.00
50226;BME280;36113;50.742;6.432;2022-09-17T06:16:26;147254.50;;;9.23;100.00
50226;BME280;36113;50.742;6.432;2022-09-17T06:18:51;147275.81;;;9.32;100.00
50226;BME280;36113;50.742;6.432;2022-09-17T06:21:18;147288.31;;;9.37;100.00
50226;BME280;36113;50.742;6.432;2022-09-17T06:23:44;147283.28;;;9.35;100.00
50226;BME280;36113;50.742;6.432;2022-09-17T06:26:10;147295.81;;;9.40;100.00
50226;BME280;36113;50.742;6.432;2022-09-17T06:28:36;147303.31;;;9.43;100.00
50226;BME280;36113;50.742;6.432;2022-09-17T06:31:03;147217.00;;;9.08;100.00
50226;BME280;36113;50.742;6.432;2022-09-17T06:33:29;147298.31;;;9.41;100.00
50226;BME280;36113;50.742;6.432;2022-09-17T06:35:59;147303.31;;;9.43;100.00
50226;BME280;36113;50.742;6.432;2022-09-17T06:38:25;147265.78;;;9.28;100.00
50226;BME280;36113;50.742;6.432;2022-09-17T06:40:51;147233.22;;;9.14;100.00
50226;BME280;36113;50.742;6.432;2022-09-17T06:43:18;147307.06;;;9.45;100.00
50226;BME280;36113;50.742;6.432;2022-09-17T06:45:43;147279.53;;;9.33;100.00
50226;BME280;36113;50.742;6.432;2022-09-17T06:48:15;147309.59;;;9.46;100.00
50226;BME280;36113;50.742;6.432;2022-09-17T06:50:40;147318.34;;;9.49;100.00
50226;BME280;36113;50.742;6.432;2022-09-17T06:53:05;147293.31;;;9.39;100.00
50226;BME280;36113;50.742;6.432;2022-09-17T06:55:30;147347.16;;;9.61;100.00
50226;BME280;36113;50.742;6.432;2022-09-17T06:57:57;147235.75;;;9.15;100.00
50226;BME280;36113;50.742;6.432;2022-09-17T07:00:23;147303.31;;;9.43;100.00
50226;BME280;36113;50.742;6.432;2022-09-17T07:02:58;147367.13;;;9.69;100.00
50226;BME280;36113;50.742;6.432;2022-09-17T07:05:25;147390.94;;;9.79;100.00
50226;BME280;36113;50.742;6.432;2022-09-17T07:07:52;147335.88;;;9.56;100.00
50226;BME280;36113;50.742;6.432;2022-09-17T07:10:18;147387.19;;;9.77;100.00
50226;BME280;36113;50.742;6.432;2022-09-17T07:12:43;147383.41;;;9.76;100.00
50226;BME280;36113;50.742;6.432;2022-09-17T07:15:10;147412.22;;;9.88;100.00
50226;BME280;36113;50.742;6.432;2022-09-17T07:17:36;147347.16;;;9.61;100.00
50226;BME280;36113;50.742;6.432;2022-09-17T07:20:05;147363.38;;;9.68;100.00
50226;BME280;36113;50.742;6.432;2022-09-17T07:22:30;147390.94;;;9.79;100.00
50226;BME280;36113;50.742;6.432;2022-09-17T07:24:55;147385.94;;;9.77;100.00
50226;BME280;36113;50.742;6.432;2022-09-17T07:27:21;147359.66;;;9.66;100.00
50226;BME280;36113;50.742;6.432;2022-09-17T07:29:46;147405.97;;;9.85;100.00
50226;BME280;36113;50.742;6.432;2022-09-17T07:32:11;147364.66;;;9.68;100.00
50226;BME280;36113;50.742;6.432;2022-09-17T07:34:37;147444.78;;;10.01;100.00
50226;BME280;36113;50.742;6.432;2022-09-17T07:37:02;147439.78;;;9.99;100.00
50226;BME280;36113;50.742;6.432;2022-09-17T07:39:27;147471.06;;;10.12;100.00
50226;BME280;36113;50.742;6.432;2022-09-17T07:41:53;147492.34;;;10.21;100.00
50226;BME280;36113;50.742;6.432;2022-09-17T07:44:18;147483.59;;;10.17;100.00
50226;BME280;36113;50.742;6.432;2022-09-17T07:46:43;147459.81;;;10.07;100.00
50226;BME280;36113;50.742;6.432;2022-09-17T07:49:08;147545.00;;;10.42;100.00
50226;BME280;36113;50.742;6.432;2022-09-17T07:51:34;147622.63;;;10.74;100.00
50226;BME280;36113;50.742;6.432;2022-09-17T07:53:59;147660.22;;;10.89;100.00
50226;BME280;36113;50.742;6.432;2022-09-17T07:56:26;147696.56;;;11.04;100.00
50226;BME280;36113;50.742;6.432;2022-09-17T07:58:52;147732.94;;;11.19;100.00
50226;BME280;36113;50.742;6.432;2022-09-17T08:01:18;147671.50;;;10.94;100.00
50226;BME280;36113;50.742;6.432;2022-09-17T08:03:49;147633.94;;;10.79;100.00
50226;BME280;36113;50.742;6.432;2022-09-17T08:06:18;147602.63;;;10.66;100.00
50226;BME280;36113;50.742;6.432;2022-09-17T08:08:44;147709.09;;;11.10;100.00
50226;BME280;36113;50.742;6.432;2022-09-17T08:11:20;147707.88;;;11.09;100.00
50226;BME280;36113;50.742;6.432;2022-09-17T08:13:47;147764.22;;;11.32;100.00
50226;BME280;36113;50.742;6.432;2022-09-17T08:16:13;147761.75;;;11.31;100.00
50226;BME280;36113;50.742;6.432;2022-09-17T08:18:39;147711.63;;;11.11;100.00
50226;BME280;36113;50.742;6.432;2022-09-17T08:21:08;147763.00;;;11.32;100.00
50226;BME280;36113;50.742;6.432;2022-09-17T08:23:35;147742.94;;;11.23;100.00
50226;BME280;36113;50.742;6.432;2022-09-17T08:26:02;147731.66;;;11.19;100.00
50226;BME280;36113;50.742;6.432;2022-09-17T08:28:29;147711.63;;;11.11;100.00
50226;BME280;36113;50.742;6.432;2022-09-17T08:31:00;147729.16;;;11.18;100.00
50226;BME280;36113;50.742;6.432;2022-09-17T08:33:26;147706.56;;;11.08;100.00
50226;BME280;36113;50.742;6.432;2022-09-17T08:35:52;147737.94;;;11.21;100.00
50226;BME280;36113;50.742;6.432;2022-09-17T08:38:18;147755.47;;;11.29;100.00
50226;BME280;36113;50.742;6.432;2022-09-17T08:43:21;147798.06;;;11.46;100.00
50226;BME280;36113;50.742;6.432;2022-09-17T08:45:53;147846.97;;;11.66;100.00
50226;BME280;36113;50.742;6.432;2022-09-17T08:48:19;147853.22;;;11.69;100.00
50226;BME280;36113;50.742;6.432;2022-09-17T08:50:44;147829.44;;;11.59;100.00
50226;BME280;36113;50.742;6.432;2022-09-17T08:53:30;147902.13;;;11.89;100.00
50226;BME280;36113;50.742;6.432;2022-09-17T08:56:09;147929.78;;;12.00;100.00
50226;BME280;36113;50.742;6.432;2022-09-17T08:59:01;147982.41;;;12.22;100.00
50226;BME280;36113;50.742;6.432;2022-09-17T09:06:59;148017.50;;;12.36;100.00
50226;BME280;36113;50.742;6.432;2022-09-17T09:09:31;148026.34;;;12.40;100.00
50226;BME280;36113;50.742;6.432;2022-09-17T09:12:10;148050.13;;;12.49;100.00
50226;BME280;36113;50.742;6.432;2022-09-17T09:14:49;147966.09;;;12.15;100.00
50226;BME280;36113;50.742;6.432;2022-09-17T09:17:17;148090.28;;;12.66;100.00
50226;BME280;36113;50.742;6.432;2022-09-17T09:19:45;148095.28;;;12.68;100.00
50226;BME280;36113;50.742;6.432;2022-09-17T09:22:42;148145.47;;;12.88;100.00
50226;BME280;36113;50.742;6.432;2022-09-17T09:25:23;148154.25;;;12.92;100.00
50226;BME280;36113;50.742;6.432;2022-09-17T09:30:22;148273.50;;;13.41;94.54
50226;BME280;36113;50.742;6.432;2022-09-17T09:33:08;148247.13;;;13.30;97.84
50226;BME280;36113;50.742;6.432;2022-09-17T09:35:40;148237.09;;;13.26;96.19
50226;BME280;36113;50.742;6.432;2022-09-17T09:38:28;148203.22;;;13.12;96.44
50226;BME280;36113;50.742;6.432;2022-09-17T09:41:06;148208.22;;;13.14;97.48
50226;BME280;36113;50.742;6.432;2022-09-17T09:46:08;148190.66;;;13.07;100.00
50226;BME280;36113;50.742;6.432;2022-09-17T09:51:48;148033.81;;;12.43;98.99
50226;BME280;36113;50.742;6.432;2022-09-17T09:54:48;148089.06;;;12.65;100.00
50226;BME280;36113;50.742;6.432;2022-09-17T09:57:30;148100.31;;;12.70;100.00
50226;BME280;36113;50.742;6.432;2022-09-17T10:00:22;148131.69;;;12.83;100.00
50226;BME280;36113;50.742;6.432;2022-09-17T10:02:54;148163.03;;;12.95;100.00
50226;BME280;36113;50.742;6.432;2022-09-17T10:05:20;148200.69;;;13.11;98.96
50226;BME280;36113;50.742;6.432;2022-09-17T10:07:46;148249.66;;;13.31;99.26
50226;BME280;36113;50.742;6.432;2022-09-17T10:10:11;148240.88;;;13.27;99.33
50226;BME280;36113;50.742;6.432;2022-09-17T10:12:37;148271.03;;;13.40;98.33
50226;BME280;36113;50.742;6.432;2022-09-17T10:15:28;148350.09;;;13.72;99.33
50226;BME280;36113;50.742;6.432;2022-09-17T10:21:01;148385.25;;;13.86;95.60
50226;BME280;36113;50.742;6.432;2022-09-17T10:23:28;148323.72;;;13.61;97.11
50226;BME280;36113;50.742;6.432;2022-09-17T10:25:56;148389.00;;;13.88;94.31
50226;BME280;36113;50.742;6.432;2022-09-17T10:29:27;148465.59;;;14.19;94.48
50226;BME280;36113;50.742;6.432;2022-09-17T10:31:22;148436.72;;;14.07;92.25
50226;BME280;36113;50.742;6.432;2022-09-17T10:34:02;148401.56;;;13.93;89.79
50226;BME280;36113;50.742;6.432;2022-09-17T10:36:42;148348.81;;;13.72;91.63
50226;BME280;36113;50.742;6.432;2022-09-17T10:39:37;148318.69;;;13.59;87.81
50226;BME280;36113;50.742;6.432;2022-09-17T10:44:36;148327.47;;;13.63;87.30
50226;BME280;36113;50.742;6.432;2022-09-17T10:47:10;148375.22;;;13.82;86.84
50226;BME280;36113;50.742;6.432;2022-09-17T10:49:43;148461.84;;;14.18;86.96
50226;BME280;36113;50.742;6.432;2022-09-17T10:52:23;148502.03;;;14.34;86.41
50226;BME280;36113;50.742;6.432;2022-09-17T11:00:21;148461.84;;;14.18;88.29
50226;BME280;36113;50.742;6.432;2022-09-17T11:08:21;148435.47;;;14.07;86.02
50226;BME280;36113;50.742;6.432;2022-09-17T11:10:59;148430.47;;;14.05;86.86
50226;BME280;36113;50.742;6.432;2022-09-17T11:13:36;148420.38;;;14.01;84.33
50226;BME280;36113;50.742;6.432;2022-09-17T11:21:42;148488.22;;;14.29;78.91
50226;BME280;36113;50.742;6.432;2022-09-17T11:30:04;148525.91;;;14.44;81.33
50226;BME280;36113;50.742;6.432;2022-09-17T11:35:35;148577.44;;;14.65;76.99
50226;BME280;36113;50.742;6.432;2022-09-17T11:38:04;148566.13;;;14.60;77.53
50226;BME280;36113;50.742;6.432;2022-09-17T11:43:25;148667.88;;;15.02;75.89
50226;BME280;36113;50.742;6.432;2022-09-17T11:46:12;148665.41;;;15.01;74.45
50226;BME280;36113;50.742;6.432;2022-09-17T11:48:54;148618.91;;;14.82;75.20
50226;BME280;36113;50.742;6.432;2022-09-17T11:51:33;148595.03;;;14.72;75.38
50226;BME280;36113;50.742;6.432;2022-09-17T11:56:40;148611.38;;;14.79;76.18
50226;BME280;36113;50.742;6.432;2022-09-17T11:59:28;148519.59;;;14.41;78.05
50226;BME280;36113;50.742;6.432;2022-09-17T12:02:04;148439.25;;;14.09;78.61
50226;BME280;36113;50.742;6.432;2022-09-17T12:13:01;148079.00;;;12.61;99.03
50226;BME280;36113;50.742;6.432;2022-09-17T12:15:30;147978.66;;;12.20;100.00
50226;BME280;36113;50.742;6.432;2022-09-17T12:18:15;147914.72;;;11.94;100.00
50226;BME280;36113;50.742;6.432;2022-09-17T12:20:45;147885.81;;;11.82;100.00
50226;BME280;36113;50.742;6.432;2022-09-17T12:23:14;147843.22;;;11.64;100.00
50226;BME280;36113;50.742;6.432;2022-09-17T12:25:51;147799.31;;;11.47;100.00
50226;BME280;36113;50.742;6.432;2022-09-17T12:28:30;147776.75;;;11.37;100.00
50226;BME280;36113;50.742;6.432;2022-09-17T12:31:05;147746.69;;;11.25;100.00
50226;BME280;36113;50.742;6.432;2022-09-17T12:33:41;147737.94;;;11.21;100.00
50226;BME280;36113;50.742;6.432;2022-09-17T12:36:28;147719.09;;;11.14;100.00
50226;BME280;36113;50.742;6.432;2022-09-17T12:42:02;147707.88;;;11.09;100.00
50226;BME280;36113;50.742;6.432;2022-09-17T12:50:48;147865.75;;;11.74;100.00
50226;BME280;36113;50.742;6.432;2022-09-17T12:53:12;147858.25;;;11.71;100.00
50226;BME280;36113;50.742;6.432;2022-09-17T12:58:24;147804.34;;;11.49;100.00
50226;BME280;36113;50.742;6.432;2022-09-17T13:01:06;147742.94;;;11.23;100.00
50226;BME280;36113;50.742;6.432;2022-09-17T13:03:49;147660.22;;;10.89;100.00
50226;BME280;36113;50.742;6.432;2022-09-17T13:12:17;147655.22;;;10.87;100.00
50226;BME280;36113;50.742;6.432;2022-09-17T13:14:56;147637.69;;;10.80;100.00
50226;BME280;36113;50.742;6.432;2022-09-17T13:23:31;147601.34;;;10.65;100.00
50226;BME280;36113;50.742;6.432;2022-09-17T13:25:58;147588.81;;;10.60;100.00
50226;BME280;36113;50.742;6.432;2022-09-17T13:28:46;147627.69;;;10.76;100.00
50226;BME280;36113;50.742;6.432;2022-09-17T13:31:12;147630.16;;;10.77;100.00
50226;BME280;36113;50.742;6.432;2022-09-17T13:33:51;147675.28;;;10.96;100.00
50226;BME280;36113;50.742;6.432;2022-09-17T13:42:21;147620.16;;;10.73;100.00
50226;BME280;36113;50.742;6.432;2022-09-17T13:45:00;147601.34;;;10.65;100.00
50226;BME280;36113;50.742;6.432;2022-09-17T13:50:27;147603.88;;;10.66;100.00
50226;BME280;36113;50.742;6.432;2022-09-17T13:52:59;147602.63;;;10.66;100.00
50226;BME280;36113;50.742;6.432;2022-09-17T13:55:36;147684.03;;;10.99;100.00
50226;BME280;36113;50.742;6.432;2022-09-17T13:58:07;147637.69;;;10.80;100.00
50226;BME280;36113;50.742;6.432;2022-09-17T14:00:55;147731.66;;;11.19;100.00
50226;BME280;36113;50.742;6.432;2022-09-17T14:05:53;147825.66;;;11.57;100.00
50226;BME280;36113;50.742;6.432;2022-09-17T14:08:29;147775.53;;;11.37;100.00
50226;BME280;36113;50.742;6.432;2022-09-17T14:11:00;147823.13;;;11.56;100.00
50226;BME280;36113;50.742;6.432;2022-09-17T14:16:00;147860.75;;;11.72;100.00
50226;BME280;36113;50.742;6.432;2022-09-17T14:20:52;147895.84;;;11.86;100.00
50226;BME280;36113;50.742;6.432;2022-09-17T14:23:19;147893.34;;;11.85;100.00
50226;BME280;36113;50.742;6.432;2022-09-17T14:25:52;147994.94;;;12.27;100.00
50226;BME280;36113;50.742;6.432;2022-09-17T14:28:38;147958.56;;;12.12;100.00
50226;BME280;36113;50.742;6.432;2022-09-17T14:31:16;147963.63;;;12.14;100.00
50226;BME280;36113;50.742;6.432;2022-09-17T14:33:43;147938.56;;;12.04;100.00
50226;BME280;36113;50.742;6.432;2022-09-17T14:36:20;147986.19;;;12.23;100.00
50226;BME280;36113;50.742;6.432;2022-09-17T14:38:49;147974.88;;;12.18;100.00
50226;BME280;36113;50.742;6.432;2022-09-17T14:41:20;147953.56;;;12.10;100.00
50226;BME280;36113;50.742;6.432;2022-09-17T14:43:57;148025.03;;;12.39;100.00
50226;BME280;36113;50.742;6.432;2022-09-17T14:49:33;148092.78;;;12.67;100.00
50226;BME280;36113;50.742;6.432;2022-09-17T14:52:00;148094.06;;;12.67;100.00
50226;BME280;36113;50.742;6.432;2022-09-17T14:54:33;148097.81;;;12.69;100.00
50226;BME280;36113;50.742;6.432;2022-09-17T15:02:35;148038.88;;;12.45;100.00
50226;BME280;36113;50.742;6.432;2022-09-17T15:07:40;148080.22;;;12.62;100.00
50226;BME280;36113;50.742;6.432;2022-09-17T15:10:17;148077.75;;;12.61;100.00
50226;BME280;36113;50.742;6.432;2022-09-17T15:12:44;148052.66;;;12.50;100.00
50226;BME280;36113;50.742;6.432;2022-09-17T15:15:16;148081.50;;;12.62;100.00
50226;BME280;36113;50.742;6.432;2022-09-17T15:17:43;148079.00;;;12.61;100.00
50226;BME280;36113;50.742;6.432;2022-09-17T15:20:13;148063.97;;;12.55;100.00
50226;BME280;36113;50.742;6.432;2022-09-17T15:22:41;148038.88;;;12.45;100.00
50226;BME280;36113;50.742;6.432;2022-09-17T15:25:14;148040.13;;;12.45;100.00
50226;BME280;36113;50.742;6.432;2022-09-17T15:27:44;148080.22;;;12.62;100.00
50226;BME280;36113;50.742;6.432;2022-09-17T15:30:20;148164.28;;;12.96;100.00
50226;BME280;36113;50.742;6.432;2022-09-17T15:32:53;148119.16;;;12.78;100.00
50226;BME280;36113;50.742;6.432;2022-09-17T15:35:25;148099.06;;;12.69;100.00
50226;BME280;36113;50.742;6.432;2022-09-17T15:40:30;148066.44;;;12.56;100.00